Time;durP1;ratioP1;P1;durP2;ratioP2;P2;SDS_P1;SDS_P2;PMS_P1;PMS_P2;Temp;Humidity;BMP_temperature;BMP_pressure;BME280_temperature;BME280_humidity;BME280_pressure;Samples;Min_cycle;Max_cycle;Signal;HPM_P1;HPM_P2
2022/06/26 00:01:27;;;;;;;6.60;5.35;;;;;;;21.06;57.61;99535.16;1739194;82;21021;-44
2022/06/26 00:03:54;;;;;;;8.70;6.25;;;;;;;21.01;57.82;99534.28;1739195;82;20966;-44
2022/06/26 00:06:21;;;;;;;8.25;5.80;;;;;;;20.97;58.10;99541.85;1739294;82;21955;-44
2022/06/26 00:08:48;;;;;;;6.67;5.75;;;;;;;20.92;58.25;99540.97;1739159;82;21017;-44
2022/06/26 00:11:16;;;;;;;8.05;5.75;;;;;;;20.86;58.16;99552.34;1739376;82;20935;-44
2022/06/26 00:13:43;;;;;;;7.33;5.47;;;;;;;20.80;58.06;99545.75;1739538;82;21030;-44
2022/06/26 00:16:10;;;;;;;7.22;5.72;;;;;;;20.75;58.53;99553.14;1739274;82;21288;-44
2022/06/26 00:18:37;;;;;;;8.48;5.35;;;;;;;20.70;58.87;99551.65;1739346;82;21253;-44
2022/06/26 00:21:05;;;;;;;9.58;6.08;;;;;;;20.65;58.95;99548.61;1739254;82;20923;-44
2022/06/26 00:23:34;;;;;;;7.75;5.50;;;;;;;20.63;59.06;99555.12;1739119;82;21018;-44
2022/06/26 00:26:03;;;;;;;8.03;6.10;;;;;;;20.60;59.15;99565.62;1739159;82;21567;-44
2022/06/26 00:28:31;;;;;;;7.73;6.33;;;;;;;20.57;59.60;99569.23;1739355;82;21556;-44
2022/06/26 00:30:58;;;;;;;8.28;6.37;;;;;;;20.53;59.92;99565.73;1739259;82;21569;-44
2022/06/26 00:33:25;;;;;;;8.28;6.05;;;;;;;20.47;60.04;99564.69;1739043;82;21499;-44
2022/06/26 00:35:52;;;;;;;9.15;6.42;;;;;;;20.43;60.17;99564.73;1739065;82;21009;-44
2022/06/26 00:38:19;;;;;;;9.35;6.35;;;;;;;20.38;60.24;99565.99;1739223;82;20981;-44
2022/06/26 00:40:47;;;;;;;9.50;6.25;;;;;;;20.36;60.28;99560.14;1739023;82;21021;-44
2022/06/26 00:43:14;;;;;;;10.38;6.08;;;;;;;20.32;60.36;99556.68;1754987;81;21090;-44
2022/06/26 00:45:41;;;;;;;8.23;5.90;;;;;;;20.29;60.59;99562.98;1757045;81;21542;-44
2022/06/26 00:48:09;;;;;;;8.28;5.92;;;;;;;20.26;60.74;99565.20;1751372;81;21575;-44
2022/06/26 00:50:36;;;;;;;10.58;6.05;;;;;;;20.25;60.69;99565.61;1744157;82;20935;-44
2022/06/26 00:53:03;;;;;;;7.25;6.00;;;;;;;20.24;60.51;99568.97;1744094;82;21069;-43
2022/06/26 00:55:31;;;;;;;6.72;5.58;;;;;;;20.24;60.43;99573.09;1708212;82;21138;-44
2022/06/26 00:57:59;;;;;;;8.28;5.97;;;;;;;20.25;60.62;99571.12;1744116;82;21005;-44
2022/06/26 01:00:26;;;;;;;7.33;5.45;;;;;;;20.25;60.48;99573.87;1733383;82;21607;-44
2022/06/26 01:02:53;;;;;;;8.05;5.65;;;;;;;20.22;60.37;99565.87;1743500;81;20974;-44
2022/06/26 01:05:21;;;;;;;8.40;5.67;;;;;;;20.20;60.24;99568.84;1743784;81;21030;-44
2022/06/26 01:07:48;;;;;;;7.00;5.58;;;;;;;20.19;60.02;99568.66;1743498;82;21128;-44
2022/06/26 01:10:15;;;;;;;7.45;5.28;;;;;;;20.17;60.15;99573.83;1743782;81;20934;-44
2022/06/26 01:12:44;;;;;;;7.35;5.37;;;;;;;20.12;60.16;99572.33;1743789;81;20986;-44
2022/06/26 01:15:12;;;;;;;6.87;5.70;;;;;;;20.08;59.87;99573.59;1743667;82;20927;-44
2022/06/26 01:17:41;;;;;;;8.33;5.58;;;;;;;20.01;59.21;99579.97;1743783;82;21030;-44
2022/06/26 01:20:11;;;;;;;8.53;5.23;;;;;;;19.89;59.36;99573.69;1743739;81;21217;-44
2022/06/26 01:22:38;;;;;;;6.80;5.20;;;;;;;19.78;59.63;99581.31;1743945;81;20966;-44
2022/06/26 01:25:08;;;;;;;5.70;5.15;;;;;;;19.68;59.92;99582.25;1743688;81;21069;-44
2022/06/26 01:27:43;;;;;;;7.07;4.90;;;;;;;19.64;60.27;99583.69;1744086;82;20939;-44
2022/06/26 01:30:11;;;;;;;10.82;5.47;;;;;;;19.62;60.28;99583.91;1743469;82;21795;-44
2022/06/26 01:32:39;;;;;;;7.65;5.42;;;;;;;19.61;60.39;99581.74;1743861;82;21194;-44
2022/06/26 01:35:07;;;;;;;8.73;5.33;;;;;;;19.63;60.46;99579.97;1743458;82;20935;-44
2022/06/26 01:37:36;;;;;;;6.17;5.58;;;;;;;19.65;60.57;99584.47;1743450;81;20990;-44
2022/06/26 01:40:05;;;;;;;7.45;5.62;;;;;;;19.67;60.68;99586.19;1743451;82;21520;-44
2022/06/26 01:42:32;;;;;;;8.55;5.70;;;;;;;19.68;60.72;99589.91;1733068;82;21042;-44
2022/06/26 01:44:59;;;;;;;6.28;5.60;;;;;;;19.69;60.71;99591.47;1743452;81;21254;-44
2022/06/26 01:47:26;;;;;;;10.03;5.78;;;;;;;19.71;60.67;99586.31;1743345;82;21535;-45
2022/06/26 01:49:54;;;;;;;7.28;5.22;;;;;;;19.72;60.70;99585.72;1751467;82;20924;-43
2022/06/26 01:52:21;;;;;;;8.38;5.83;;;;;;;19.70;60.66;99586.16;1751405;82;21492;-43
2022/06/26 01:54:50;;;;;;;7.28;5.92;;;;;;;19.70;60.76;99593.62;1751380;82;20993;-43
2022/06/26 01:57:17;;;;;;;6.58;5.42;;;;;;;19.69;60.94;99594.81;1751534;82;21139;-44
2022/06/26 01:59:47;;;;;;;;;;;;;;;19.70;61.07;99589.50;1753955;82;21001;-44
2022/06/26 02:02:16;;;;;;;6.75;5.62;;;;;;;19.72;61.10;99593.97;1751405;81;20117;-44
2022/06/26 02:04:43;;;;;;;7.47;5.37;;;;;;;19.64;61.32;99595.28;1751587;82;21606;-43
2022/06/26 02:07:10;;;;;;;7.00;5.25;;;;;;;19.68;61.29;99600.13;1751439;82;21062;-44
2022/06/26 02:15:10;;;;;;;6.80;6.00;;;;;;;19.72;61.70;99608.52;1721306;83;21039;-44
2022/06/26 02:17:37;;;;;;;8.60;5.80;;;;;;;19.70;61.82;99612.29;1703499;83;21503;-44
2022/06/26 02:20:07;;;;;;;8.75;6.10;;;;;;;19.72;61.89;99607.73;1721678;83;21044;-44
2022/06/26 02:22:34;;;;;;;9.33;6.35;;;;;;;19.76;62.09;99615.33;1722087;83;21069;-44
2022/06/26 02:25:01;;;;;;;6.47;5.60;;;;;;;19.78;62.05;99613.73;1721720;83;21105;-44
2022/06/26 02:27:29;;;;;;;6.97;6.00;;;;;;;19.82;61.95;99617.80;1721690;83;21131;-44
2022/06/26 02:29:56;;;;;;;7.37;6.15;;;;;;;19.84;61.73;99615.43;1721534;83;20969;-44
2022/06/26 02:32:23;;;;;;;8.48;5.72;;;;;;;19.85;61.41;99620.50;1721830;83;21010;-44
2022/06/26 02:34:51;;;;;;;6.42;5.37;;;;;;;19.87;61.15;99624.22;1721512;83;23141;-44
2022/06/26 02:37:18;;;;;;;7.58;6.20;;;;;;;19.86;61.18;99623.44;1686740;85;20976;-44
2022/06/26 02:39:45;;;;;;;10.85;6.00;;;;;;;19.89;61.24;99619.09;1686660;85;21000;-44
2022/06/26 02:42:12;;;;;;;7.70;6.10;;;;;;;19.93;61.20;99622.56;1686699;85;21555;-44
2022/06/26 02:44:40;;;;;;;7.30;5.72;;;;;;;19.95;61.08;99622.31;1686647;85;21107;-44
2022/06/26 02:47:08;;;;;;;6.75;6.05;;;;;;;19.94;60.69;99620.75;1686629;85;21213;-44
2022/06/26 02:49:35;;;;;;;7.87;5.62;;;;;;;19.95;60.50;99622.31;1686450;84;21045;-44
2022/06/26 02:52:04;;;;;;;6.75;5.45;;;;;;;19.98;60.34;99628.19;1686537;85;21514;-44
2022/06/26 02:54:31;;;;;;;7.08;5.85;;;;;;;20.00;60.24;99628.54;1686544;85;21033;-44
2022/06/26 02:57:00;;;;;;;6.53;5.62;;;;;;;20.01;60.31;99629.51;1686561;85;21025;-44
2022/06/26 02:59:27;;;;;;;8.53;6.08;;;;;;;20.03;60.34;99634.02;1686668;85;21248;-44
2022/06/26 03:01:55;;;;;;;9.10;5.87;;;;;;;20.06;60.44;99638.67;1686569;85;20932;-44
2022/06/26 03:04:46;;;;;;;7.87;6.08;;;;;;;20.10;60.53;99636.64;1686155;85;21005;-44
2022/06/26 03:07:12;;;;;;;13.70;5.87;;;;;;;20.13;60.61;99630.91;1686590;85;20972;-43
2022/06/26 03:09:40;;;;;;;7.20;5.55;;;;;;;20.15;60.79;99635.39;1686476;85;22036;-43
2022/06/26 03:12:08;;;;;;;8.30;6.37;;;;;;;20.19;60.88;99635.52;1686634;85;21152;-43
2022/06/26 03:14:37;;;;;;;9.53;5.65;;;;;;;20.24;60.98;99632.88;1685881;85;21688;-44
2022/06/26 03:17:04;;;;;;;8.50;6.67;;;;;;;20.28;61.17;99641.27;1686613;85;21001;-44
2022/06/26 03:19:31;;;;;;;7.78;6.12;;;;;;;20.34;61.14;99638.25;1686520;85;21031;-44
2022/06/26 03:21:59;;;;;;;8.88;6.28;;;;;;;20.42;61.12;99639.52;1686432;85;21068;-44
2022/06/26 03:24:26;;;;;;;8.43;5.95;;;;;;;20.50;61.25;99643.11;1686590;85;21259;-44
2022/06/26 03:26:55;;;;;;;8.18;6.03;;;;;;;20.58;61.06;99646.52;1686411;85;21477;-44
2022/06/26 03:29:22;;;;;;;8.65;6.40;;;;;;;20.65;61.01;99646.41;1686535;85;20957;-44
2022/06/26 03:31:49;;;;;;;8.55;5.67;;;;;;;20.72;60.94;99647.67;1686668;85;21044;-44
2022/06/26 03:34:17;;;;;;;9.03;6.83;;;;;;;20.78;60.95;99644.59;1686761;85;21044;-44
2022/06/26 03:36:46;;;;;;;9.08;6.60;;;;;;;20.85;60.93;99647.23;1686853;85;21143;-44
2022/06/26 03:39:13;;;;;;;9.20;6.62;;;;;;;20.92;60.85;99642.95;1686782;85;21589;-43
2022/06/26 03:41:40;;;;;;;14.23;6.70;;;;;;;20.97;60.78;99645.22;1686863;85;21292;-43
2022/06/26 03:44:07;;;;;;;7.85;6.10;;;;;;;21.02;60.63;99637.05;1659293;85;21024;-44
2022/06/26 03:46:34;;;;;;;7.87;6.03;;;;;;;21.10;60.61;99633.77;1686967;85;21023;-44
2022/06/26 03:49:02;;;;;;;10.55;5.87;;;;;;;21.16;60.45;99632.67;1686737;85;21172;-44
2022/06/26 03:51:31;;;;;;;7.47;5.95;;;;;;;21.22;60.13;99641.42;1686478;85;21527;-44
2022/06/26 03:53:59;;;;;;;11.45;5.85;;;;;;;21.32;59.97;99644.38;1686704;85;21582;-44
2022/06/26 03:56:26;;;;;;;6.60;5.28;;;;;;;21.41;59.59;99648.13;1686571;85;21099;-44
2022/06/26 03:58:54;;;;;;;7.22;5.42;;;;;;;21.51;59.36;99638.85;1686544;85;21099;-44
2022/06/26 04:01:23;;;;;;;8.75;5.50;;;;;;;21.59;58.97;99640.88;1686770;85;21343;-44
2022/06/26 04:03:51;;;;;;;12.47;5.87;;;;;;;21.69;58.64;99638.46;1686521;85;21056;-44
2022/06/26 04:06:18;;;;;;;7.45;5.72;;;;;;;21.77;58.03;99639.88;1686585;85;21060;-44
2022/06/26 04:08:47;;;;;;;7.17;5.50;;;;;;;21.83;57.89;99639.55;1686544;85;21017;-44
2022/06/26 04:11:15;;;;;;;7.17;5.75;;;;;;;21.89;57.92;99641.95;1686752;85;21040;-44
2022/06/26 04:13:44;;;;;;;7.67;5.55;;;;;;;21.95;57.76;99643.04;1686674;85;21148;-43
2022/06/26 04:16:13;;;;;;;10.75;5.78;;;;;;;22.00;57.62;99637.01;1686741;85;21017;-44
2022/06/26 04:18:43;;;;;;;7.10;5.33;;;;;;;22.07;57.38;99636.08;1686565;85;21518;-44
2022/06/26 04:21:10;;;;;;;7.15;5.30;;;;;;;22.12;57.07;99641.09;1686535;85;21107;-44
2022/06/26 04:23:38;;;;;;;6.87;5.45;;;;;;;22.16;56.81;99634.87;1659237;85;20956;-44
2022/06/26 04:26:07;;;;;;;8.10;5.73;;;;;;;22.23;57.23;99642.19;1686565;85;21220;-44
2022/06/26 04:28:34;;;;;;;6.72;5.00;;;;;;;22.27;56.73;99636.75;1686676;85;21011;-44
2022/06/26 04:31:03;;;;;;;6.03;5.20;;;;;;;22.34;56.86;99635.81;1686615;85;21020;-44
2022/06/26 04:33:32;;;;;;;9.53;4.67;;;;;;;22.42;56.65;99633.81;1686781;85;21044;-44
2022/06/26 04:36:01;;;;;;;6.85;4.78;;;;;;;22.49;56.60;99632.27;1686224;85;21044;-44
2022/06/26 04:38:30;;;;;;;6.47;4.73;;;;;;;22.56;56.07;99628.53;1686865;85;21092;-44
2022/06/26 04:41:31;;;;;;;5.67;4.60;;;;;;;22.64;55.74;99628.54;1686631;85;21192;-44
2022/06/26 04:43:29;;;;;;;5.78;4.67;;;;;;;22.72;55.94;99628.55;1683139;85;21052;-44
2022/06/26 04:45:58;;;;;;;5.22;4.72;;;;;;;22.80;55.61;99632.67;1686742;85;21004;-43
2022/06/26 04:48:25;;;;;;;6.60;4.58;;;;;;;22.85;55.53;99633.52;1686700;85;21013;-43
2022/06/26 04:50:54;;;;;;;5.75;4.65;;;;;;;22.92;55.29;99638.09;1686565;85;21116;-44
2022/06/26 04:53:21;;;;;;;7.10;5.33;;;;;;;22.98;55.79;99639.12;1686629;85;20936;-44
2022/06/26 04:55:48;;;;;;;5.15;4.65;;;;;;;23.04;55.59;99643.52;1686760;85;20970;-44
2022/06/26 04:58:16;;;;;;;6.95;4.72;;;;;;;23.08;55.14;99649.72;1686689;85;21001;-44
2022/06/26 05:00:43;;;;;;;6.83;5.05;;;;;;;23.09;54.78;99650.65;1686737;85;21048;-44
2022/06/26 05:03:15;;;;;;;8.50;5.10;;;;;;;23.12;54.46;99650.39;1686443;85;21093;-44
2022/06/26 05:05:53;;;;;;;6.00;4.85;;;;;;;23.14;54.70;99647.98;1685462;85;21052;-44
2022/06/26 05:08:22;;;;;;;7.97;5.53;;;;;;;23.17;54.69;99652.63;1684427;85;20940;-44
2022/06/26 05:10:50;;;;;;;7.37;4.97;;;;;;;23.22;54.86;99651.49;1686678;85;21023;-44
2022/06/26 05:13:18;;;;;;;8.30;5.50;;;;;;;23.33;55.13;99658.11;1686912;85;21001;-44
2022/06/26 05:15:48;;;;;;;;;;;;;;;23.45;55.08;99660.16;1686692;85;21196;-44
2022/06/26 05:18:15;;;;;;;10.48;5.40;;;;;;;23.57;54.72;99657.26;1671676;85;20092;-44
2022/06/26 05:20:43;;;;;;;7.55;5.50;;;;;;;23.63;54.62;99657.64;1679154;85;21388;-44
2022/06/26 05:23:12;;;;;;;5.83;4.58;;;;;;;23.79;53.95;99654.01;1679106;85;21030;-44
2022/06/26 05:25:49;;;;;;;8.70;5.20;;;;;;;23.93;53.13;99659.72;1678003;85;21527;-44
2022/06/26 05:28:17;;;;;;;5.75;5.05;;;;;;;23.75;52.73;99611.81;1678988;85;22008;-44
2022/06/26 05:30:44;;;;;;;9.43;5.08;;;;;;;24.15;52.42;99660.63;1679008;85;21005;-44
2022/06/26 05:33:12;;;;;;;6.83;5.60;;;;;;;24.27;52.25;99657.69;1678865;85;21049;-44
2022/06/26 05:35:41;;;;;;;5.93;5.33;;;;;;;24.43;51.81;99662.50;1679280;85;21607;-44
2022/06/26 05:38:08;;;;;;;8.05;5.35;;;;;;;24.43;51.81;99662.50;1678961;85;21456;-44
2022/06/26 05:40:35;;;;;;;6.83;5.25;;;;;;;24.48;51.38;99659.17;1679085;85;21092;-44
2022/06/26 05:43:03;;;;;;;7.83;5.28;;;;;;;24.55;51.65;99663.08;1678869;85;21053;-44
2022/06/26 05:45:30;;;;;;;6.40;4.87;;;;;;;24.62;50.93;99661.47;1678971;85;20970;-45
2022/06/26 05:48:16;;;;;;;6.90;5.50;;;;;;;24.67;51.29;99662.89;1678896;85;21634;-45
2022/06/26 05:50:48;;;;;;;11.93;5.28;;;;;;;24.74;51.21;99667.44;1670444;85;21550;-45
2022/06/26 05:53:21;;;;;;;6.15;5.10;;;;;;;24.81;50.79;99668.56;1657254;85;21240;-44
2022/06/26 05:55:50;;;;;;;5.87;4.67;;;;;;;24.87;50.50;99670.97;1662987;84;21091;-44
2022/06/26 05:58:38;;;;;;;6.45;4.50;;;;;;;24.93;50.58;99673.34;1657624;86;20970;-44
2022/06/26 06:01:12;;;;;;;5.42;4.75;;;;;;;25.00;50.97;99670.30;1658875;86;21081;-44
2022/06/26 06:03:40;;;;;;;6.17;4.50;;;;;;;25.08;50.91;99674.37;1659669;86;21145;-44
2022/06/26 06:06:08;;;;;;;5.62;4.05;;;;;;;25.15;49.95;99673.35;1659767;86;21211;-45
2022/06/26 06:08:35;;;;;;;6.22;4.00;;;;;;;25.23;49.59;99670.48;1659465;86;21062;-45
2022/06/26 06:11:02;;;;;;;7.40;4.20;;;;;;;25.30;49.26;99666.84;1659430;86;21045;-45
2022/06/26 06:13:30;;;;;;;4.65;3.60;;;;;;;25.38;49.40;99669.52;1659492;86;21053;-45
2022/06/26 06:15:58;;;;;;;7.25;3.90;;;;;;;25.45;48.80;99668.48;1659546;86;21112;-45
2022/06/26 06:18:26;;;;;;;4.33;3.62;;;;;;;25.53;48.84;99674.70;1659772;86;21148;-45
2022/06/26 06:20:53;;;;;;;7.25;3.40;;;;;;;25.63;48.65;99675.56;1659537;86;21531;-45
2022/06/26 06:23:21;;;;;;;5.87;3.70;;;;;;;25.72;48.13;99681.17;1659802;86;21049;-45
2022/06/26 06:25:48;;;;;;;4.85;3.65;;;;;;;25.82;47.64;99673.66;1659740;86;21065;-45
2022/06/26 06:28:15;;;;;;;3.98;3.55;;;;;;;25.91;47.11;99679.26;1659833;86;21088;-45
2022/06/26 06:30:43;;;;;;;5.37;3.45;;;;;;;25.99;47.55;99673.60;1659782;86;21219;-45
2022/06/26 06:33:10;;;;;;;5.22;3.15;;;;;;;26.07;46.75;99676.25;1659679;86;21622;-44
2022/06/26 06:35:40;;;;;;;5.83;3.65;;;;;;;26.14;46.75;99673.17;1659486;86;21045;-44
2022/06/26 06:38:09;;;;;;;3.75;2.83;;;;;;;26.23;46.18;99680.83;1659869;85;21129;-45
2022/06/26 06:40:37;;;;;;;;;;;;;;;26.31;44.92;99671.73;1641045;86;21073;-44
2022/06/26 06:43:11;;;;;;;5.50;3.20;;;;;;;26.38;44.81;99678.38;1659646;86;21201;-45
2022/06/26 06:45:56;;;;;;;5.20;3.10;;;;;;;26.34;43.83;99673.59;1705575;84;21037;-44
2022/06/26 06:48:28;;;;;;;5.50;3.02;;;;;;;26.41;43.89;99678.70;1705474;84;21140;-45
2022/06/26 06:51:11;;;;;;;5.00;3.05;;;;;;;26.49;43.78;99674.39;1705403;83;21536;-45
2022/06/26 06:53:43;;;;;;;;;;;;;;;26.57;43.55;99672.89;1708156;84;21085;-45
2022/06/26 06:56:10;;;;;;;5.58;2.65;;;;;;;26.64;42.65;99668.41;1705605;83;21147;-45
2022/06/26 06:58:38;;;;;;;5.85;2.72;;;;;;;26.64;42.85;99676.75;1705445;84;21508;-45
2022/06/26 07:01:07;;;;;;;5.75;2.70;;;;;;;26.72;42.46;99675.98;1705741;84;21583;-45
2022/06/26 07:03:34;;;;;;;5.28;3.05;;;;;;;26.82;42.85;99676.77;1705691;84;20986;-45
2022/06/26 07:06:01;;;;;;;3.87;2.47;;;;;;;26.94;42.66;99680.68;1706083;84;21014;-44
2022/06/26 07:08:29;;;;;;;3.55;3.02;;;;;;;27.00;41.93;99678.84;1705720;84;21556;-44
2022/06/26 07:10:57;;;;;;;5.60;3.00;;;;;;;27.04;41.85;99680.23;1705921;84;20993;-44
2022/06/26 07:13:24;;;;;;;3.02;2.33;;;;;;;27.08;42.53;99677.28;1705810;84;21017;-45
2022/06/26 07:15:51;;;;;;;4.37;2.58;;;;;;;27.13;42.02;99677.44;1705845;84;21496;-44
2022/06/26 07:18:18;;;;;;;6.28;2.33;;;;;;;27.20;41.32;99682.70;1705620;84;21018;-45
2022/06/26 07:20:47;;;;;;;4.40;2.58;;;;;;;27.29;41.33;99670.78;1705794;84;21138;-45
2022/06/26 07:23:14;;;;;;;2.60;2.08;;;;;;;27.40;41.21;99671.06;1705892;84;20963;-45
2022/06/26 07:25:43;;;;;;;4.85;2.00;;;;;;;27.51;39.26;99666.44;1705383;83;21487;-45
2022/06/26 07:28:11;;;;;;;3.15;2.00;;;;;;;27.62;39.33;99671.69;1705471;84;21606;-44
2022/06/26 07:30:39;;;;;;;4.35;2.30;;;;;;;27.73;38.46;99662.84;1705601;84;20998;-45
2022/06/26 07:35:55;;;;;;;3.17;2.62;;;;;;;27.98;39.48;99672.17;1705670;84;21296;-45
2022/06/26 07:38:22;;;;;;;7.20;2.40;;;;;;;28.12;39.51;99663.03;1705524;84;20934;-45
2022/06/26 07:40:50;;;;;;;2.77;2.10;;;;;;;28.26;39.15;99665.13;1705704;84;21033;-44
2022/06/26 07:43:17;;;;;;;5.47;2.47;;;;;;;28.40;38.85;99667.22;1705673;84;21050;-44
2022/06/26 07:45:44;;;;;;;3.87;2.27;;;;;;;28.54;38.37;99658.15;1705757;84;21261;-44
2022/06/26 07:48:13;;;;;;;2.30;2.00;;;;;;;28.65;37.95;99661.19;1706030;84;20938;-44
2022/06/26 07:50:41;;;;;;;6.10;2.12;;;;;;;28.74;37.07;99663.94;1706578;83;21331;-44
2022/06/26 07:53:09;;;;;;;3.42;2.12;;;;;;;28.78;37.19;99667.31;1705759;84;21036;-44
2022/06/26 07:55:36;;;;;;;2.80;2.22;;;;;;;28.78;36.41;99675.69;1705919;84;21045;-45
2022/06/26 07:58:04;;;;;;;2.70;2.27;;;;;;;28.74;36.50;99674.32;1705939;84;21576;-45
2022/06/26 08:00:31;;;;;;;3.72;1.90;;;;;;;28.66;36.20;99680.09;1705674;84;21112;-45
2022/06/26 08:03:08;;;;;;;4.22;2.30;;;;;;;28.54;36.70;99676.28;1705769;84;21068;-45
2022/06/26 08:05:36;;;;;;;3.33;2.30;;;;;;;28.48;37.18;99677.55;1705996;84;21085;-45
2022/06/26 08:08:05;;;;;;;3.35;2.40;;;;;;;28.51;37.08;99671.66;1705797;84;21077;-45
2022/06/26 08:10:32;;;;;;;4.83;2.10;;;;;;;28.65;37.46;99670.17;1705962;84;21192;-44
2022/06/26 08:12:59;;;;;;;6.05;2.10;;;;;;;28.83;37.16;99668.05;1705808;84;21223;-44
2022/06/26 08:15:27;;;;;;;4.15;2.15;;;;;;;28.98;36.31;99674.30;1705696;84;20977;-44
2022/06/26 08:17:54;;;;;;;2.90;2.10;;;;;;;29.08;37.34;99679.95;1705775;84;21077;-44
2022/06/26 08:20:22;;;;;;;3.33;2.27;;;;;;;29.21;36.85;99669.28;1705790;84;21029;-44
2022/06/26 08:22:49;;;;;;;3.67;2.35;;;;;;;29.33;36.82;99666.27;1685873;84;21146;-44
2022/06/26 08:25:16;;;;;;;2.37;1.90;;;;;;;29.43;36.52;99671.14;1705908;84;21033;-44
2022/06/26 08:27:44;;;;;;;2.83;2.15;;;;;;;29.47;36.17;99673.11;1705725;84;21089;-45
2022/06/26 08:30:11;;;;;;;2.45;2.00;;;;;;;29.40;36.14;99678.29;1705770;84;21018;-45
2022/06/26 08:32:38;;;;;;;2.52;1.80;;;;;;;29.30;35.54;99679.78;1706303;84;21041;-45
2022/06/26 08:35:07;;;;;;;3.20;1.70;;;;;;;29.26;35.36;99674.98;1701500;84;21157;-44
2022/06/26 08:37:34;;;;;;;2.50;1.80;;;;;;;29.25;34.62;99681.81;1706130;84;20989;-45
2022/06/26 08:40:01;;;;;;;3.15;1.90;;;;;;;29.21;34.64;99676.27;1705828;84;21002;-45
2022/06/26 08:42:28;;;;;;;4.37;1.80;;;;;;;29.16;33.90;99681.12;1705642;84;21021;-45
2022/06/26 08:44:57;;;;;;;2.05;1.70;;;;;;;29.08;34.16;99684.14;1705597;84;21076;-45
2022/06/26 08:47:26;;;;;;;2.40;1.60;;;;;;;29.05;34.36;99684.45;1705897;84;21896;-45
2022/06/26 08:49:53;;;;;;;2.58;1.90;;;;;;;29.04;34.22;99671.00;1705866;84;20902;-44
2022/06/26 08:52:21;;;;;;;1.98;1.77;;;;;;;29.11;34.71;99676.20;1718656;83;21570;-45
2022/06/26 08:54:50;;;;;;;2.10;1.90;;;;;;;29.20;34.02;99664.33;1719223;83;21543;-45
2022/06/26 08:57:17;;;;;;;2.33;2.00;;;;;;;29.24;34.25;99672.53;1719191;83;21032;-45
2022/06/26 08:59:44;;;;;;;2.62;1.70;;;;;;;29.28;34.16;99665.51;1719323;83;21099;-45
2022/06/26 09:02:12;;;;;;;2.50;1.92;;;;;;;29.33;34.96;99666.27;1692592;83;21556;-45
2022/06/26 09:04:39;;;;;;;5.78;1.95;;;;;;;29.41;34.96;99661.06;1719286;83;20972;-44
2022/06/26 09:07:08;;;;;;;2.22;1.92;;;;;;;29.56;34.45;99669.45;1719457;83;20929;-45
2022/06/26 09:09:39;;;;;;;3.70;1.85;;;;;;;29.67;33.49;99668.25;1719130;83;21499;-44
2022/06/26 09:12:07;;;;;;;3.30;1.70;;;;;;;29.71;33.52;99666.80;1693671;83;21807;-45
2022/06/26 09:14:34;;;;;;;2.45;1.70;;;;;;;29.77;33.55;99669.04;1719425;83;20958;-44
2022/06/26 09:17:01;;;;;;;2.83;1.80;;;;;;;29.83;33.46;99670.53;1719706;83;21017;-45
2022/06/26 09:19:33;;;;;;;2.65;1.82;;;;;;;29.90;32.80;99675.77;1719453;83;21041;-45
2022/06/26 09:22:14;;;;;;;2.62;1.70;;;;;;;29.90;33.02;99675.00;1728575;82;21076;-45
2022/06/26 09:24:55;;;;;;;1.82;1.50;;;;;;;29.90;33.31;99671.58;1738596;81;21076;-45
2022/06/26 09:27:22;;;;;;;;;;;;;;;29.90;33.03;99679.19;1749864;82;21558;-42
2022/06/26 09:29:54;;;;;;;2.25;1.92;;;;;;;29.96;32.83;99670.28;1748386;82;20129;-42
2022/06/26 09:32:23;;;;;;;2.17;1.80;;;;;;;29.99;32.99;99659.52;1747861;82;21812;-42
2022/06/26 09:34:54;;;;;;;2.25;1.80;;;;;;;30.16;32.62;99664.75;1748692;81;21049;-43
2022/06/26 09:37:22;;;;;;;2.30;1.77;;;;;;;30.07;33.01;99632.68;1748413;81;21124;-42
2022/06/26 09:39:57;;;;;;;1.70;1.60;;;;;;;30.45;33.11;99659.69;1748565;81;21030;-42
2022/06/26 09:42:25;;;;;;;2.05;1.62;;;;;;;30.58;33.32;99653.92;1717543;82;21004;-42
2022/06/26 09:44:53;;;;;;;1.70;1.50;;;;;;;30.71;33.20;99651.39;1749134;82;21673;-43
2022/06/26 09:47:34;;;;;;;5.42;1.62;;;;;;;30.75;32.53;99657.54;1749261;81;21025;-42
2022/06/26 09:50:03;;;;;;;2.37;2.00;;;;;;;30.80;32.43;99649.84;1749261;82;21100;-42
2022/06/26 09:52:32;;;;;;;2.30;1.60;;;;;;;30.85;31.47;99649.14;1749019;81;21001;-42
2022/06/26 09:55:00;;;;;;;2.22;1.70;;;;;;;30.91;31.45;99640.18;1749052;82;21025;-43
2022/06/26 09:57:28;;;;;;;3.62;1.80;;;;;;;30.93;31.54;99642.64;1749216;81;21025;-42
2022/06/26 09:59:55;;;;;;;3.67;1.80;;;;;;;30.92;31.51;99632.70;1749260;81;20985;-42
2022/06/26 10:07:54;;;;;;;3.72;1.90;;;;;;;31.16;31.92;99626.09;1749067;82;20965;-42
2022/06/26 10:10:23;;;;;;;3.52;1.90;;;;;;;31.23;31.56;99632.64;1749122;82;21080;-42
2022/06/26 10:12:56;;;;;;;2.92;1.72;;;;;;;31.28;31.79;99643.91;1749126;82;20994;-42
2022/06/26 10:15:29;;;;;;;7.87;2.02;;;;;;;31.37;31.01;99636.73;1749100;82;21190;-42
2022/06/26 10:18:41;;;;;;;2.87;2.12;;;;;;;31.43;31.15;99641.77;1749116;82;21012;-42
2022/06/26 10:21:12;;;;;;;2.55;2.22;;;;;;;31.46;30.31;99640.80;1749056;82;20957;-42
2022/06/26 10:23:41;;;;;;;4.83;2.35;;;;;;;31.38;30.46;99640.31;1749020;82;21073;-42
2022/06/26 10:26:17;;;;;;;;;;;;;;;31.42;30.39;99638.05;1751973;82;21555;-42
2022/06/26 10:29:09;;;;;;;4.08;2.00;;;;;;;31.56;30.05;99639.22;1749027;82;21125;-42
2022/06/26 10:31:47;;;;;;;4.10;2.00;;;;;;;31.63;30.39;99628.97;1748994;81;21071;-42
2022/06/26 10:34:20;;;;;;;4.33;2.05;;;;;;;31.88;29.98;99635.16;1749122;81;20980;-42
2022/06/26 10:37:10;;;;;;;2.27;2.08;;;;;;;32.07;29.10;99633.52;1749055;82;21649;-43
2022/06/26 10:39:45;;;;;;;5.33;2.37;;;;;;;32.23;29.05;99637.09;1749530;81;21507;-42
2022/06/26 10:45:28;;;;;;;2.72;2.22;;;;;;;32.56;28.15;99639.94;1748940;82;20965;-42
2022/06/26 10:47:58;;;;;;;5.83;2.08;;;;;;;32.67;28.12;99637.98;1749057;81;21081;-42
2022/06/26 10:50:37;;;;;;;2.62;2.02;;;;;;;32.67;28.01;99652.02;1748904;81;20981;-42
2022/06/26 10:53:24;;;;;;;3.60;2.17;;;;;;;32.61;27.84;99645.58;1735334;81;21081;-42
2022/06/26 10:55:58;;;;;;;5.47;2.12;;;;;;;32.60;28.52;99639.05;1735014;82;21140;-42
2022/06/26 10:58:37;;;;;;;2.80;2.12;;;;;;;32.50;28.56;99647.55;1734259;82;21031;-43
2022/06/26 11:01:07;;;;;;;4.60;2.10;;;;;;;32.38;29.02;99648.78;1735166;82;21017;-42
2022/06/26 11:03:36;;;;;;;3.80;2.17;;;;;;;32.27;28.98;99648.84;1735235;82;20918;-42
2022/06/26 11:06:10;;;;;;;2.55;2.00;;;;;;;32.20;29.18;99652.11;1735242;82;21077;-42
2022/06/26 11:08:50;;;;;;;3.35;2.00;;;;;;;32.10;28.97;99639.55;1734451;82;21094;-42
2022/06/26 11:11:23;;;;;;;2.17;1.90;;;;;;;32.00;29.19;99641.63;1734852;82;20945;-42
2022/06/26 11:14:01;;;;;;;6.15;2.12;;;;;;;31.91;29.17;99630.72;1734356;82;21035;-42
2022/06/26 11:16:35;;;;;;;2.55;2.08;;;;;;;31.86;29.08;99630.05;1735128;82;21073;-42
2022/06/26 11:19:08;;;;;;;3.15;2.00;;;;;;;31.91;29.49;99626.52;1735268;82;21026;-42
2022/06/26 11:21:35;;;;;;;2.77;2.08;;;;;;;32.20;29.02;99629.66;1735238;82;21464;-43
2022/06/26 11:24:03;;;;;;;2.67;2.12;;;;;;;32.48;28.93;99625.63;1735152;82;21089;-42
2022/06/26 11:26:30;;;;;;;3.47;2.50;;;;;;;32.85;28.42;99622.72;1735133;82;21033;-43
2022/06/26 11:29:00;;;;;;;2.90;2.00;;;;;;;33.11;28.23;99630.97;1734986;82;21050;-43
2022/06/26 11:31:30;;;;;;;6.50;2.30;;;;;;;33.21;28.22;99631.53;1734920;82;21105;-43
2022/06/26 11:34:11;;;;;;;3.25;1.92;;;;;;;33.22;27.19;99630.23;1735179;82;21738;-42
2022/06/26 11:36:58;;;;;;;2.92;2.20;;;;;;;33.06;26.95;99631.72;1734812;82;20985;-42
2022/06/26 11:39:41;;;;;;;4.83;1.98;;;;;;;32.82;27.44;99628.59;1734922;82;21017;-43
2022/06/26 11:42:22;;;;;;;3.98;2.25;;;;;;;32.68;27.75;99628.90;1734913;82;21080;-43
2022/06/26 11:44:51;;;;;;;3.05;2.02;;;;;;;32.63;28.18;99629.01;1735053;82;21677;-43
2022/06/26 11:47:19;;;;;;;2.80;2.08;;;;;;;32.72;27.95;99631.62;1734888;82;21054;-42
2022/06/26 11:49:46;;;;;;;6.20;2.22;;;;;;;32.85;28.09;99620.55;1735405;82;20914;-43
2022/06/26 11:52:14;;;;;;;3.33;2.15;;;;;;;33.10;27.82;99618.96;1741768;82;21476;-43
2022/06/26 11:54:43;;;;;;;2.37;2.10;;;;;;;33.53;27.16;99619.55;1749012;81;21068;-43
2022/06/26 11:57:11;;;;;;;3.05;2.50;;;;;;;33.53;27.16;99619.55;1749075;81;21028;-43
2022/06/26 11:59:45;;;;;;;4.58;2.10;;;;;;;33.59;27.19;99621.72;1749169;82;21230;-43
2022/06/26 12:02:23;;;;;;;2.02;1.80;;;;;;;33.54;27.32;99622.48;1748959;82;21474;-42